Time;durP1;ratioP1;P1;durP2;ratioP2;P2;SDS_P1;SDS_P2;PMS_P1;PMS_P2;Temp;Humidity;BMP_temperature;BMP_pressure;BME280_temperature;BME280_humidity;BME280_pressure;Samples;Min_cycle;Max_cycle;Signal;HPM_P1;HPM_P2
2022/07/14 00:00:48;;;;;;;1.13;0.93;;;;;;;11.71;66.15;95964.26;1629475;87;21549;-66
2022/07/14 00:03:15;;;;;;;3.27;1.30;;;;;;;11.62;65.75;95957.83;1629750;88;21058;-66
2022/07/14 00:05:41;;;;;;;1.07;0.73;;;;;;;11.62;66.22;95963.98;1602390;90;21517;-66
2022/07/14 00:08:08;;;;;;;0.90;0.80;;;;;;;11.58;66.66;95955.66;1629512;88;21059;-66
2022/07/14 00:10:35;;;;;;;0.80;0.77;;;;;;;11.58;67.38;95962.27;1605873;88;21059;-66
2022/07/14 00:13:02;;;;;;;3.87;1.20;;;;;;;11.59;66.20;95961.81;1602338;89;21062;-66
2022/07/14 00:15:30;;;;;;;3.53;1.00;;;;;;;11.69;65.77;95966.05;1629667;87;21083;-66
2022/07/14 00:17:59;;;;;;;1.93;1.33;;;;;;;11.78;65.66;95961.94;1629580;87;21023;-66
2022/07/14 00:20:26;;;;;;;0.95;0.60;;;;;;;11.85;66.37;95962.26;1602379;89;21067;-66
2022/07/14 00:22:56;;;;;;;0.90;0.72;;;;;;;11.83;65.67;95961.41;1629652;88;21055;-66
2022/07/14 00:25:27;;;;;;;1.02;0.90;;;;;;;11.72;66.26;95957.20;1629777;87;21054;-66
2022/07/14 00:27:54;;;;;;;0.90;0.80;;;;;;;11.60;65.98;95963.59;1601908;90;21070;-66
2022/07/14 00:30:22;;;;;;;1.80;0.63;;;;;;;11.54;66.28;95960.60;1629683;88;21069;-66
2022/07/14 00:32:49;;;;;;;0.73;0.60;;;;;;;11.52;66.66;95963.71;1629684;87;21061;-66
2022/07/14 00:35:16;;;;;;;2.47;0.50;;;;;;;11.59;66.04;95956.11;1602511;90;21023;-66
2022/07/14 00:37:43;;;;;;;0.60;0.60;;;;;;;11.63;65.99;95958.23;1629427;88;21168;-66
2022/07/14 00:40:11;;;;;;;1.30;0.60;;;;;;;11.53;66.61;95958.84;1629718;87;21079;-66
2022/07/14 00:42:48;;;;;;;1.60;0.80;;;;;;;11.58;66.66;95954.80;1602452;90;21051;-66
2022/07/14 00:45:19;;;;;;;1.03;0.60;;;;;;;11.65;66.68;95963.92;1627039;88;21094;-66
2022/07/14 00:47:46;;;;;;;1.50;0.90;;;;;;;11.68;66.26;95962.54;1629519;88;21002;-66
2022/07/14 00:50:16;;;;;;;0.87;0.80;;;;;;;11.65;67.37;95961.28;1602565;89;21011;-66
2022/07/14 00:52:46;;;;;;;0.60;0.60;;;;;;;11.61;67.45;95967.50;1629633;88;21042;-66
2022/07/14 00:55:14;;;;;;;1.03;0.73;;;;;;;11.58;67.35;95972.84;1629484;88;21113;-66
2022/07/14 00:57:42;;;;;;;0.90;0.90;;;;;;;11.51;66.40;95971.66;1602375;89;21540;-66
2022/07/14 01:00:13;;;;;;;0.70;0.70;;;;;;;11.48;66.05;95963.33;1632943;87;21052;-66
2022/07/14 01:02:43;;;;;;;1.10;0.90;;;;;;;11.48;66.00;95964.19;1641028;87;21057;-66
2022/07/14 01:05:10;;;;;;;1.27;0.70;;;;;;;11.46;66.07;95963.80;1613622;89;21580;-66
2022/07/14 01:07:36;;;;;;;0.87;0.70;;;;;;;11.36;66.66;95963.06;1636333;88;21038;-66
2022/07/14 01:10:06;;;;;;;1.00;0.80;;;;;;;11.30;66.56;95959.21;1640773;87;21081;-66
2022/07/14 01:12:33;;;;;;;0.70;0.70;;;;;;;11.28;66.61;95962.77;1613701;89;21576;-65
2022/07/14 01:15:00;;;;;;;0.97;0.70;;;;;;;11.17;68.08;95961.17;1636207;88;21007;-66
2022/07/14 01:17:27;;;;;;;1.50;0.80;;;;;;;11.11;69.04;95967.84;1640778;87;21054;-66
2022/07/14 01:19:54;;;;;;;1.70;1.00;;;;;;;11.09;69.55;95960.84;1613541;89;21068;-66
2022/07/14 01:22:20;;;;;;;1.50;0.60;;;;;;;11.07;68.58;95960.88;1636122;88;21137;-66
2022/07/14 01:24:47;;;;;;;0.87;0.70;;;;;;;11.03;68.48;95954.75;1641184;87;21062;-66
2022/07/14 01:27:14;;;;;;;1.83;0.73;;;;;;;11.05;69.38;95960.02;1613349;89;21556;-66
2022/07/14 01:29:41;;;;;;;2.07;0.80;;;;;;;11.04;69.20;95957.84;1635903;88;21122;-66
2022/07/14 01:32:09;;;;;;;1.43;0.80;;;;;;;11.02;68.89;95960.94;1641056;87;21014;-66
2022/07/14 01:34:37;;;;;;;1.77;1.53;;;;;;;10.98;69.65;95971.11;1613562;89;21058;-66
2022/07/14 01:37:04;;;;;;;0.70;0.70;;;;;;;10.96;69.45;95968.06;1636179;88;21572;-66
2022/07/14 01:39:30;;;;;;;2.40;1.00;;;;;;;10.93;69.42;95963.70;1636364;88;21010;-65
2022/07/14 01:41:58;;;;;;;1.00;0.80;;;;;;;10.90;69.66;95967.71;1636032;88;21066;-66
2022/07/14 01:44:26;;;;;;;1.37;0.60;;;;;;;10.89;69.87;95967.30;1636020;88;21077;-66
2022/07/14 01:46:52;;;;;;;2.60;0.90;;;;;;;10.87;69.41;95961.16;1640893;87;21061;-66
2022/07/14 01:49:20;;;;;;;0.63;0.63;;;;;;;10.86;69.42;95965.12;1608792;88;21029;-66
2022/07/14 01:51:47;;;;;;;1.10;0.70;;;;;;;10.85;69.28;95970.86;1636133;88;21090;-66
2022/07/14 01:54:14;;;;;;;3.47;1.20;;;;;;;10.83;70.24;95964.73;1636262;87;21019;-66
2022/07/14 01:56:41;;;;;;;2.90;1.10;;;;;;;10.85;69.82;95968.22;1636202;88;21564;-66
2022/07/14 01:59:09;;;;;;;0.60;0.60;;;;;;;10.84;69.91;95967.81;1636091;88;21034;-66
2022/07/14 02:01:40;;;;;;;1.27;0.80;;;;;;;10.85;70.77;95965.58;1653071;87;21021;-66
2022/07/14 02:04:13;;;;;;;0.70;0.70;;;;;;;10.86;69.53;95967.77;1657982;86;21081;-66
2022/07/14 02:06:44;;;;;;;2.10;0.80;;;;;;;10.96;69.41;95965.42;1630879;87;21582;-66
2022/07/14 02:09:13;;;;;;;0.90;0.70;;;;;;;11.02;68.75;95965.36;1657595;86;21599;-66
2022/07/14 02:14:27;;;;;;;2.70;0.80;;;;;;;11.00;69.96;95968.01;1657875;86;21491;-66
2022/07/14 02:16:55;;;;;;;3.43;0.80;;;;;;;11.03;70.94;95970.59;1629820;88;21072;-65
2022/07/14 02:19:24;;;;;;;1.67;0.87;;;;;;;11.07;70.06;95971.45;1657303;87;21049;-66
2022/07/14 02:21:54;;;;;;;1.00;0.80;;;;;;;11.19;69.88;95972.59;1658105;87;21064;-66
2022/07/14 02:24:22;;;;;;;1.00;0.90;;;;;;;11.19;69.95;95969.08;1629821;88;21049;-66
2022/07/14 02:26:51;;;;;;;2.53;0.80;;;;;;;11.24;70.30;95965.47;1657752;87;21045;-66
2022/07/14 02:29:19;;;;;;;3.70;0.90;;;;;;;11.37;69.97;95958.67;1660797;86;21052;-66
2022/07/14 02:31:46;;;;;;;1.63;0.80;;;;;;;11.43;69.73;95952.83;1657941;86;21077;-66
2022/07/14 02:34:15;;;;;;;5.93;1.00;;;;;;;11.49;69.15;95951.88;1657574;87;21064;-66
2022/07/14 02:36:43;;;;;;;1.07;0.80;;;;;;;11.46;69.04;95947.52;1657842;87;21141;-66
2022/07/14 02:39:12;;;;;;;1.43;0.77;;;;;;;11.43;69.81;95951.95;1657773;87;21028;-66
2022/07/14 02:41:40;;;;;;;2.40;1.00;;;;;;;11.47;70.02;95953.67;1657826;87;21049;-65
2022/07/14 02:44:08;;;;;;;1.00;0.90;;;;;;;11.51;70.02;95946.09;1629754;88;21033;-66
2022/07/14 02:46:36;;;;;;;1.20;0.90;;;;;;;11.51;69.80;95947.87;1657839;87;21102;-66
2022/07/14 02:49:05;;;;;;;1.07;0.80;;;;;;;11.54;69.74;95947.39;1657548;86;21001;-66
2022/07/14 02:51:33;;;;;;;0.70;0.70;;;;;;;11.56;69.63;95946.02;1657980;86;21056;-66
2022/07/14 02:54:00;;;;;;;0.77;0.73;;;;;;;11.57;70.08;95949.97;1631174;87;21037;-66
2022/07/14 02:56:28;;;;;;;1.77;0.80;;;;;;;11.60;70.16;95955.20;1631535;86;21547;-66
2022/07/14 02:58:54;;;;;;;1.30;1.20;;;;;;;11.64;69.94;95958.23;1657473;87;21056;-66
2022/07/14 03:01:22;;;;;;;1.43;1.17;;;;;;;11.73;70.49;95962.47;1648126;86;21093;-66
2022/07/14 03:03:50;;;;;;;1.30;0.90;;;;;;;11.78;70.27;95953.14;1636439;88;21070;-66
2022/07/14 03:06:19;;;;;;;1.73;0.90;;;;;;;11.79;70.44;95957.52;1636412;88;21038;-66
2022/07/14 03:08:48;;;;;;;1.77;1.00;;;;;;;11.79;70.54;95958.41;1635982;88;21063;-66
2022/07/14 03:11:15;;;;;;;2.73;1.13;;;;;;;11.82;70.62;95954.84;1636344;88;21070;-66
2022/07/14 03:13:42;;;;;;;0.70;0.70;;;;;;;11.90;70.30;95951.19;1636447;86;21088;-66
2022/07/14 03:16:10;;;;;;;3.47;2.17;;;;;;;11.99;70.70;95961.16;1641075;86;21529;-66
2022/07/14 03:18:40;;;;;;;3.20;2.70;;;;;;;12.01;70.27;95962.02;1613725;89;21074;-66
2022/07/14 03:21:11;;;;;;;5.43;3.50;;;;;;;12.07;70.01;95961.47;1636390;88;21062;-66
2022/07/14 03:23:41;;;;;;;12.35;3.20;;;;;;;12.09;70.16;95960.95;1636355;87;21042;-66
2022/07/14 03:26:09;;;;;;;6.70;3.00;;;;;;;12.15;70.65;95953.84;1636614;88;21045;-66
2022/07/14 03:28:37;;;;;;;2.17;1.50;;;;;;;12.24;70.28;95951.86;1636303;88;21524;-66
2022/07/14 03:31:05;;;;;;;3.12;1.70;;;;;;;12.39;70.25;95958.62;1636256;88;21021;-66
2022/07/14 03:33:31;;;;;;;3.10;1.50;;;;;;;12.47;70.16;95952.76;1636485;88;21046;-66
2022/07/14 03:35:59;;;;;;;6.73;1.07;;;;;;;12.51;69.63;95960.17;1641333;86;21030;-66
2022/07/14 03:38:26;;;;;;;5.53;3.67;;;;;;;12.56;69.84;95962.27;1613538;89;21085;-66
2022/07/14 03:40:55;;;;;;;4.62;3.60;;;;;;;12.54;70.28;95963.61;1636352;88;21070;-66
2022/07/14 03:43:22;;;;;;;4.80;3.85;;;;;;;12.55;70.82;95958.76;1609610;88;21500;-66
2022/07/14 03:45:49;;;;;;;9.05;3.72;;;;;;;12.65;69.97;95963.84;1636470;88;21034;-66
2022/07/14 03:48:19;;;;;;;5.62;4.40;;;;;;;12.72;69.24;95967.66;1636498;88;21042;-64
2022/07/14 03:50:48;;;;;;;5.17;3.98;;;;;;;12.85;68.45;95970.05;1636193;88;21548;-64
2022/07/14 03:53:15;;;;;;;6.95;5.50;;;;;;;12.95;67.87;95967.19;1636293;88;21066;-64
2022/07/14 03:55:45;;;;;;;6.83;5.60;;;;;;;13.06;67.54;95966.94;1636494;88;20999;-64
2022/07/14 03:58:12;;;;;;;5.92;4.30;;;;;;;13.14;67.36;95968.09;1636095;88;21520;-64
2022/07/14 04:00:40;;;;;;;7.40;3.75;;;;;;;13.18;66.50;95965.80;1636160;87;21086;-64
2022/07/14 04:03:07;;;;;;;3.25;2.77;;;;;;;13.19;67.01;95964.88;1636331;88;21054;-64
2022/07/14 04:05:34;;;;;;;3.15;2.40;;;;;;;13.21;66.87;95961.29;1636268;88;21026;-64
2022/07/14 04:08:03;;;;;;;3.90;2.37;;;;;;;13.28;66.71;95967.37;1636093;88;21528;-64
2022/07/14 04:10:32;;;;;;;3.87;2.72;;;;;;;13.30;68.04;95964.66;1634824;88;21166;-64
2022/07/14 04:12:59;;;;;;;3.50;2.80;;;;;;;13.28;68.82;95962.49;1636302;88;21070;-64
2022/07/14 04:15:27;;;;;;;3.65;2.40;;;;;;;13.28;69.22;95963.81;1640951;87;21025;-64
2022/07/14 04:17:53;;;;;;;4.53;2.50;;;;;;;13.39;68.90;95958.70;1636295;87;21580;-64
2022/07/14 04:20:21;;;;;;;4.37;2.00;;;;;;;13.57;68.49;95954.72;1636305;88;21094;-64
2022/07/14 04:22:49;;;;;;;4.00;2.42;;;;;;;13.76;67.68;95953.83;1636659;88;21105;-64
2022/07/14 04:25:17;;;;;;;3.02;1.72;;;;;;;13.98;67.48;95945.30;1636190;88;21121;-64
2022/07/14 04:27:46;;;;;;;2.52;2.05;;;;;;;14.15;66.41;95943.53;1636175;88;21799;-64
2022/07/14 04:30:14;;;;;;;5.22;1.77;;;;;;;14.34;66.38;95947.44;1636274;88;21086;-64
2022/07/14 04:32:42;;;;;;;2.72;1.57;;;;;;;14.52;65.54;95949.16;1636218;88;21568;-64
2022/07/14 04:35:11;;;;;;;1.62;1.45;;;;;;;14.65;65.07;95946.59;1636389;88;21094;-64
2022/07/14 04:37:38;;;;;;;1.72;1.20;;;;;;;14.76;64.67;95949.80;1636326;88;21070;-64
2022/07/14 04:40:08;;;;;;;4.72;1.37;;;;;;;14.93;64.45;95955.95;1635206;88;21556;-64
2022/07/14 04:42:35;;;;;;;1.27;0.95;;;;;;;15.11;63.82;95955.38;1641194;87;21090;-64
2022/07/14 04:45:03;;;;;;;2.37;1.42;;;;;;;15.37;63.74;95951.03;1636074;88;21046;-64
2022/07/14 04:47:29;;;;;;;3.77;1.20;;;;;;;15.57;63.79;95955.28;1636353;88;21090;-64
2022/07/14 04:52:47;;;;;;;1.42;0.95;;;;;;;16.00;62.00;95943.23;1636562;88;21046;-64
2022/07/14 04:55:16;;;;;;;2.60;1.30;;;;;;;16.28;60.05;95939.62;1634488;88;21556;-64
2022/07/14 04:57:47;;;;;;;3.12;1.10;;;;;;;16.49;59.67;95931.78;1634076;88;21524;-64
2022/07/14 05:00:16;;;;;;;2.58;1.35;;;;;;;16.72;59.05;95933.12;1636199;88;21074;-64
2022/07/14 05:02:44;;;;;;;3.52;1.10;;;;;;;16.84;58.69;95928.70;1655062;87;21029;-64
2022/07/14 05:05:11;;;;;;;4.10;1.20;;;;;;;17.02;59.20;95931.13;1657914;87;21073;-64
2022/07/14 05:07:39;;;;;;;4.72;1.25;;;;;;;17.22;58.82;95933.02;1657308;87;21387;-64
2022/07/14 05:10:08;;;;;;;1.98;1.10;;;;;;;17.41;58.67;95935.84;1658180;86;21103;-64
2022/07/14 05:12:36;;;;;;;1.40;1.00;;;;;;;17.58;58.37;95938.27;1629974;88;21475;-64
2022/07/14 05:15:04;;;;;;;6.62;1.20;;;;;;;17.68;58.55;95937.83;1657528;87;21010;-64
2022/07/14 05:17:31;;;;;;;3.62;0.95;;;;;;;17.80;57.78;95932.97;1657893;86;21511;-64
2022/07/14 05:20:00;;;;;;;2.80;0.80;;;;;;;17.90;56.01;95931.64;1657705;87;21061;-65
2022/07/14 05:22:28;;;;;;;3.80;1.10;;;;;;;17.99;57.40;95927.70;1657933;86;21057;-64
2022/07/14 05:24:54;;;;;;;4.60;0.98;;;;;;;18.17;56.70;95934.95;1636118;86;21503;-64
2022/07/14 05:27:21;;;;;;;3.70;0.80;;;;;;;18.30;56.59;95932.61;1688581;85;21009;-64
2022/07/14 05:29:48;;;;;;;3.15;1.27;;;;;;;18.43;56.68;95933.80;1688303;85;21029;-64
2022/07/14 05:32:16;;;;;;;6.45;1.40;;;;;;;18.56;56.41;95934.98;1688558;85;20973;-65
2022/07/14 05:34:45;;;;;;;8.13;1.57;;;;;;;18.67;56.48;95938.53;1688458;85;21578;-64
2022/07/14 05:37:14;;;;;;;3.55;1.60;;;;;;;18.77;56.48;95935.88;1688329;85;21542;-64
2022/07/14 05:39:40;;;;;;;5.58;1.20;;;;;;;18.85;55.61;95939.98;1688421;85;21065;-64
2022/07/14 05:42:07;;;;;;;4.62;1.50;;;;;;;18.97;55.86;95942.09;1688503;85;21551;-64
2022/07/14 05:44:35;;;;;;;5.28;1.40;;;;;;;19.07;55.96;95934.52;1688428;85;21045;-64
2022/07/14 05:47:02;;;;;;;10.10;1.45;;;;;;;19.19;55.62;95936.63;1688417;85;21056;-64
2022/07/14 05:49:29;;;;;;;5.45;1.22;;;;;;;19.31;55.66;95937.86;1688284;85;21040;-64
2022/07/14 05:51:57;;;;;;;3.00;1.10;;;;;;;19.45;55.57;95939.38;1688419;85;21622;-64
2022/07/14 05:54:24;;;;;;;1.47;1.10;;;;;;;19.60;55.17;95935.10;1688432;85;21061;-64
2022/07/14 05:56:51;;;;;;;1.00;0.90;;;;;;;19.71;53.72;95938.17;1688437;85;21033;-64
2022/07/14 05:59:18;;;;;;;1.70;1.17;;;;;;;19.83;53.82;95930.87;1688524;85;21492;-64
2022/07/14 06:01:45;;;;;;;1.55;1.12;;;;;;;19.98;53.32;95930.58;1684858;85;21113;-65
2022/07/14 06:04:12;;;;;;;3.40;1.25;;;;;;;20.08;52.78;95930.51;1678588;85;21041;-65
2022/07/14 06:06:48;;;;;;;3.60;1.20;;;;;;;20.18;51.05;95933.56;1678717;85;21552;-65
2022/07/14 06:09:17;;;;;;;3.12;1.30;;;;;;;20.31;51.79;95934.69;1678801;85;21081;-65
2022/07/14 06:11:45;;;;;;;10.78;1.47;;;;;;;20.45;51.96;95938.45;1674088;85;21044;-65
2022/07/14 06:14:14;;;;;;;4.37;1.00;;;;;;;20.55;52.28;95943.77;1678611;85;21002;-64
2022/07/14 06:16:41;;;;;;;9.63;1.70;;;;;;;20.61;52.25;95942.56;1678525;85;21567;-64
2022/07/14 06:19:08;;;;;;;8.95;1.40;;;;;;;20.66;51.65;95942.73;1674205;85;21022;-64
2022/07/14 06:21:35;;;;;;;6.47;1.30;;;;;;;20.70;51.00;95942.09;1678608;85;21495;-65
2022/07/14 06:24:02;;;;;;;6.85;1.52;;;;;;;20.74;51.15;95939.17;1678819;85;21551;-65
2022/07/14 06:26:29;;;;;;;11.30;1.20;;;;;;;20.79;51.82;95944.29;1678738;85;21009;-64
2022/07/14 06:28:56;;;;;;;7.78;1.37;;;;;;;20.86;51.81;95936.77;1678794;85;21494;-65
2022/07/14 06:31:22;;;;;;;8.05;1.27;;;;;;;20.96;51.75;95936.20;1678617;85;20978;-65
2022/07/14 06:33:49;;;;;;;3.35;1.25;;;;;;;21.10;51.53;95934.58;1678758;85;21041;-65
2022/07/14 06:36:20;;;;;;;7.22;2.08;;;;;;;21.32;51.46;95936.95;1678182;85;21049;-65
2022/07/14 06:38:47;;;;;;;4.10;1.20;;;;;;;21.56;50.42;95938.27;1678844;85;21045;-65
2022/07/14 06:41:14;;;;;;;6.72;1.32;;;;;;;21.75;49.23;95931.39;1679041;85;21065;-65
2022/07/14 06:43:43;;;;;;;1.95;1.20;;;;;;;21.96;48.48;95929.27;1678777;85;21065;-65
2022/07/14 06:46:16;;;;;;;3.92;1.20;;;;;;;22.20;47.77;95920.73;1678831;85;21083;-65
2022/07/14 06:48:44;;;;;;;3.27;1.30;;;;;;;22.34;48.13;95918.59;1678728;85;21080;-65
2022/07/14 06:51:10;;;;;;;3.05;1.20;;;;;;;22.50;48.43;95927.45;1678922;85;21013;-65
2022/07/14 06:53:37;;;;;;;7.85;1.60;;;;;;;22.67;48.77;95921.05;1678783;85;21013;-65
2022/07/14 06:56:05;;;;;;;2.02;1.20;;;;;;;22.89;47.55;95913.88;1678497;85;21041;-65
2022/07/14 06:58:32;;;;;;;1.92;1.40;;;;;;;23.06;47.08;95917.75;1678752;85;21073;-65
2022/07/14 07:00:59;;;;;;;2.05;1.10;;;;;;;23.32;45.81;95906.66;1678684;85;21503;-65
2022/07/14 07:03:26;;;;;;;3.42;1.20;;;;;;;23.59;46.34;95913.07;1667160;85;21110;-65
2022/07/14 07:08:38;;;;;;;2.80;0.90;;;;;;;24.01;45.70;95903.13;1666370;86;21564;-65
2022/07/14 07:11:04;;;;;;;1.35;0.90;;;;;;;24.40;42.95;95902.27;1666570;86;21060;-65
2022/07/14 07:13:31;;;;;;;3.33;0.90;;;;;;;24.64;41.72;95902.91;1666313;86;21041;-66
2022/07/14 07:15:58;;;;;;;1.62;1.00;;;;;;;24.88;37.78;95904.39;1665962;86;21050;-67
2022/07/14 07:18:24;;;;;;;2.85;1.10;;;;;;;25.05;37.04;95904.92;1643265;86;21072;-66
2022/07/14 07:20:51;;;;;;;4.50;1.10;;;;;;;25.21;37.96;95908.77;1666300;86;21050;-66
2022/07/14 07:23:18;;;;;;;3.45;0.93;;;;;;;25.36;38.19;95906.80;1666504;86;20998;-66
2022/07/14 07:25:44;;;;;;;2.17;0.90;;;;;;;25.54;38.47;95905.94;1666435;86;21094;-66
2022/07/14 07:28:11;;;;;;;0.93;0.88;;;;;;;25.61;34.11;95905.87;1666541;86;21018;-66
2022/07/14 07:30:38;;;;;;;1.77;0.90;;;;;;;25.65;33.91;95903.79;1666439;86;21022;-66
2022/07/14 07:33:04;;;;;;;3.12;0.90;;;;;;;25.69;34.65;95898.55;1666472;86;21045;-66
2022/07/14 07:35:31;;;;;;;1.55;0.88;;;;;;;25.72;32.86;95896.96;1666312;86;21098;-66
2022/07/14 07:37:57;;;;;;;2.47;1.00;;;;;;;25.68;31.06;95892.78;1666392;86;21042;-66
2022/07/14 07:40:24;;;;;;;1.00;0.80;;;;;;;25.71;31.97;95884.93;1666392;86;21101;-67
2022/07/14 07:42:51;;;;;;;4.37;0.82;;;;;;;25.73;32.53;95881.60;1666498;86;20963;-67
2022/07/14 07:45:18;;;;;;;1.32;1.20;;;;;;;25.85;33.64;95882.93;1666381;86;21495;-66
2022/07/14 07:47:44;;;;;;;1.00;0.90;;;;;;;25.90;32.42;95886.64;1666378;86;21097;-66
2022/07/14 07:50:11;;;;;;;1.10;0.88;;;;;;;25.86;32.50;95881.97;1666394;86;21556;-66
2022/07/14 07:52:38;;;;;;;1.65;1.05;;;;;;;25.86;33.53;95879.77;1666505;86;21496;-67
2022/07/14 07:55:11;;;;;;;2.17;0.85;;;;;;;25.88;33.57;95876.47;1666267;86;21057;-66
2022/07/14 07:57:38;;;;;;;3.15;0.93;;;;;;;26.08;33.88;95874.47;1666265;86;21054;-67
2022/07/14 08:00:07;;;;;;;11.75;1.40;;;;;;;26.37;32.29;95874.56;1666364;86;21546;-66
2022/07/14 08:02:35;;;;;;;3.80;1.22;;;;;;;26.59;32.95;95877.86;1673221;85;21073;-66
2022/07/14 08:05:03;;;;;;;1.92;1.37;;;;;;;26.76;31.92;95871.95;1656010;85;21053;-67
2022/07/14 08:07:29;;;;;;;5.28;1.10;;;;;;;26.91;31.78;95872.59;1681687;85;21025;-67
2022/07/14 08:09:56;;;;;;;2.70;0.90;;;;;;;27.08;32.20;95861.28;1681366;85;21539;-66
2022/07/14 08:12:23;;;;;;;2.35;1.00;;;;;;;27.31;31.77;95862.66;1681471;85;21065;-67
2022/07/14 08:14:49;;;;;;;3.27;1.10;;;;;;;27.61;31.52;95860.65;1681423;85;21033;-67
2022/07/14 08:17:18;;;;;;;5.33;0.98;;;;;;;27.77;30.29;95858.88;1681043;85;21025;-67
2022/07/14 08:19:46;;;;;;;1.12;0.93;;;;;;;27.82;29.19;95858.92;1681369;85;21056;-67
2022/07/14 08:22:13;;;;;;;3.42;0.98;;;;;;;27.97;29.59;95859.48;1681438;85;21006;-67
2022/07/14 08:24:41;;;;;;;4.53;1.10;;;;;;;28.04;28.49;95858.45;1681136;85;21009;-67
2022/07/14 08:27:07;;;;;;;4.05;1.15;;;;;;;28.10;29.74;95850.30;1681483;85;21025;-67
2022/07/14 08:29:34;;;;;;;3.47;1.02;;;;;;;28.16;29.18;95856.58;1681253;85;21048;-67
2022/07/14 08:32:01;;;;;;;7.22;1.07;;;;;;;28.24;29.65;95851.35;1681152;85;21017;-66
2022/07/14 08:34:27;;;;;;;2.70;1.07;;;;;;;28.43;29.28;95849.30;1681434;85;21133;-67
2022/07/14 08:36:54;;;;;;;3.12;0.90;;;;;;;28.46;29.14;95847.70;1681461;85;21037;-66
2022/07/14 08:39:20;;;;;;;2.85;0.90;;;;;;;28.39;28.83;95847.33;1680989;85;21056;-66
2022/07/14 08:41:49;;;;;;;1.32;0.80;;;;;;;28.38;27.88;95844.25;1681509;85;21472;-66
2022/07/14 08:44:17;;;;;;;5.20;0.90;;;;;;;28.44;28.07;95841.03;1681448;84;21049;-67
2022/07/14 08:46:44;;;;;;;1.47;0.70;;;;;;;28.34;26.98;95836.00;1681268;85;21073;-66
2022/07/14 08:49:11;;;;;;;1.22;0.68;;;;;;;28.56;27.19;95829.63;1681346;85;21041;-67
2022/07/14 08:51:39;;;;;;;2.60;0.88;;;;;;;28.90;28.62;95828.91;1681567;85;21057;-67
2022/07/14 08:54:10;;;;;;;2.65;1.12;;;;;;;29.20;28.32;95827.18;1681164;85;21110;-67
2022/07/14 08:56:39;;;;;;;1.75;0.80;;;;;;;29.31;27.86;95834.39;1681415;85;21045;-67
2022/07/14 08:59:07;;;;;;;1.87;0.80;;;;;;;29.45;27.46;95826.34;1681104;85;21080;-67
2022/07/14 09:01:33;;;;;;;1.72;0.70;;;;;;;29.56;27.08;95828.96;1681316;85;21001;-66
2022/07/14 09:04:01;;;;;;;4.20;0.70;;;;;;;29.55;25.97;95823.14;1667008;85;21556;-67
2022/07/14 09:06:53;;;;;;;5.08;1.00;;;;;;;29.55;25.92;95822.64;1665975;86;21045;-67
2022/07/14 09:09:24;;;;;;;4.50;1.05;;;;;;;29.52;25.98;95831.08;1643372;86;21050;-67
2022/07/14 09:12:07;;;;;;;1.55;0.70;;;;;;;29.57;26.34;95828.45;1666284;86;21108;-66
2022/07/14 09:17:26;;;;;;;5.10;1.32;;;;;;;29.55;25.56;95822.64;1666050;86;21391;-66
2022/07/14 09:20:11;;;;;;;2.58;0.80;;;;;;;29.38;24.61;95840.12;1666291;86;21070;-67
2022/07/14 09:22:41;;;;;;;1.10;0.80;;;;;;;29.23;24.53;95842.35;1666250;86;21002;-67
2022/07/14 09:25:12;;;;;;;0.72;0.60;;;;;;;28.93;23.86;95834.56;1666375;86;21066;-67
2022/07/14 09:27:40;;;;;;;1.90;0.75;;;;;;;28.90;25.10;95838.41;1666410;86;21062;-67
2022/07/14 09:30:11;;;;;;;1.00;0.60;;;;;;;29.18;24.49;95831.92;1666240;86;21062;-66
2022/07/14 09:32:47;;;;;;;0.60;0.60;;;;;;;29.37;23.54;95837.05;1665916;86;21086;-67
2022/07/14 09:35:17;;;;;;;2.85;0.78;;;;;;;29.29;24.22;95828.23;1666360;86;21005;-66
2022/07/14 09:37:46;;;;;;;1.25;0.70;;;;;;;29.38;23.69;95829.25;1666267;86;21555;-67
2022/07/14 09:40:20;;;;;;;1.10;0.80;;;;;;;29.59;24.98;95822.38;1666420;86;21062;-67
2022/07/14 09:42:58;;;;;;;0.88;0.88;;;;;;;29.72;22.87;95829.80;1666291;86;21054;-67
2022/07/14 09:45:37;;;;;;;0.70;0.60;;;;;;;29.70;23.76;95818.20;1666445;86;21046;-67
2022/07/14 09:48:14;;;;;;;0.68;0.68;;;;;;;29.89;24.76;95813.30;1666080;86;21030;-67
2022/07/14 09:51:00;;;;;;;0.93;0.80;;;;;;;30.13;24.44;95811.00;1666429;85;21022;-67
2022/07/14 09:53:32;;;;;;;1.62;0.95;;;;;;;30.19;23.26;95812.31;1666258;86;21579;-67
2022/07/14 09:56:03;;;;;;;1.62;0.60;;;;;;;30.44;24.35;95814.09;1666337;86;21049;-67
2022/07/14 09:58:35;;;;;;;1.00;1.00;;;;;;;30.66;23.13;95806.95;1666346;86;21045;-67
2022/07/14 10:01:05;;;;;;;0.98;0.88;;;;;;;30.90;22.85;95805.14;1666718;85;21097;-67
2022/07/14 10:03:34;;;;;;;2.15;0.80;;;;;;;30.98;23.09;95807.97;1673723;85;21062;-67
2022/07/14 10:06:03;;;;;;;1.87;0.70;;;;;;;30.88;23.24;95811.23;1678768;85;21049;-67
2022/07/14 10:08:35;;;;;;;1.30;0.55;;;;;;;30.98;22.99;95819.38;1678903;85;21040;-67
2022/07/14 10:11:03;;;;;;;;;;;;;;;30.54;22.82;95812.20;1680204;85;21017;-67
2022/07/14 10:13:30;;;;;;;1.35;0.80;;;;;;;30.47;24.06;95807.02;1678753;85;20398;-67
2022/07/14 10:15:58;;;;;;;0.82;0.70;;;;;;;30.80;24.37;95811.95;1678867;85;21013;-67
2022/07/14 10:18:27;;;;;;;0.80;0.80;;;;;;;31.05;22.68;95803.65;1678605;85;21076;-67
2022/07/14 10:20:57;;;;;;;1.20;0.80;;;;;;;30.94;22.73;95802.45;1678910;85;21045;-67
2022/07/14 10:23:26;;;;;;;1.05;0.80;;;;;;;31.10;22.65;95793.66;1678720;85;21065;-67
2022/07/14 10:25:56;;;;;;;3.25;0.80;;;;;;;31.14;22.60;95797.78;1678756;85;21037;-67
2022/07/14 10:28:23;;;;;;;0.78;0.78;;;;;;;31.28;23.57;95797.81;1678910;85;21025;-67
2022/07/14 10:31:34;;;;;;;1.22;0.80;;;;;;;31.41;22.79;95794.25;1678845;85;21041;-67
2022/07/14 10:34:32;;;;;;;1.57;0.98;;;;;;;31.48;22.60;95789.91;1678732;85;21066;-67
2022/07/14 10:37:29;;;;;;;8.08;1.00;;;;;;;31.63;22.62;95801.67;1678434;85;21029;-67
2022/07/14 10:40:28;;;;;;;0.70;0.70;;;;;;;31.43;21.64;95787.30;1646169;85;21526;-67
2022/07/14 10:43:18;;;;;;;1.27;0.80;;;;;;;30.46;22.25;95791.66;1678759;85;21061;-67
2022/07/14 10:45:50;;;;;;;2.25;0.80;;;;;;;29.67;23.35;95791.30;1678875;85;21032;-67
2022/07/14 10:48:34;;;;;;;;;;;;;;;29.56;23.98;95786.82;1681280;85;21069;-67
2022/07/14 10:51:21;;;;;;;1.37;0.82;;;;;;;29.64;24.33;95789.69;1679004;85;20105;-67
2022/07/14 10:54:14;;;;;;;0.93;0.75;;;;;;;29.85;23.92;95788.23;1678730;85;21045;-67
2022/07/14 10:56:44;;;;;;;0.85;0.70;;;;;;;30.11;24.08;95783.06;1678826;85;20994;-67
2022/07/14 10:59:29;;;;;;;1.37;0.80;;;;;;;30.19;23.31;95780.50;1678655;85;21010;-67
2022/07/14 11:02:18;;;;;;;1.75;0.90;;;;;;;30.23;22.73;95771.53;1678549;85;21018;-66
2022/07/14 11:05:11;;;;;;;1.62;0.75;;;;;;;30.52;23.16;95772.03;1678722;85;21053;-67
2022/07/14 11:08:02;;;;;;;1.92;0.90;;;;;;;31.00;22.58;95772.41;1678995;85;21464;-67
2022/07/14 11:10:37;;;;;;;1.92;0.70;;;;;;;31.21;22.45;95764.84;1678643;85;21592;-67
2022/07/14 11:13:09;;;;;;;1.52;0.90;;;;;;;31.59;22.79;95757.98;1678460;85;21061;-67
2022/07/14 11:15:38;;;;;;;3.00;1.00;;;;;;;31.98;22.47;95764.52;1679113;85;21025;-67
2022/07/14 11:18:28;;;;;;;1.70;0.80;;;;;;;31.86;22.00;95755.70;1678588;85;21473;-67
2022/07/14 11:21:17;;;;;;;1.85;0.60;;;;;;;31.96;21.55;95761.97;1678437;85;21121;-66
2022/07/14 11:23:52;;;;;;;2.87;0.70;;;;;;;31.98;21.48;95764.52;1678778;85;21045;-67
2022/07/14 11:26:42;;;;;;;2.65;0.80;;;;;;;31.62;21.90;95769.94;1678720;85;20998;-67
2022/07/14 11:29:11;;;;;;;2.02;0.90;;;;;;;31.78;21.26;95757.84;1678766;85;21033;-67
2022/07/14 11:31:50;;;;;;;0.70;0.70;;;;;;;31.71;21.51;95756.74;1678765;85;21029;-67
2022/07/14 11:37:16;;;;;;;0.60;0.60;;;;;;;32.43;21.39;95756.71;1678975;85;21045;-67
2022/07/14 11:39:46;;;;;;;1.00;0.90;;;;;;;32.48;20.18;95762.55;1678666;85;21060;-67
2022/07/14 11:42:16;;;;;;;1.62;0.70;;;;;;;32.48;20.91;95766.20;1678779;85;21058;-67
2022/07/14 11:44:45;;;;;;;1.40;0.80;;;;;;;32.51;20.32;95760.92;1678753;85;21042;-67
2022/07/14 11:47:23;;;;;;;0.80;0.60;;;;;;;32.69;20.78;95760.88;1678319;85;21117;-67
2022/07/14 11:49:59;;;;;;;0.82;0.70;;;;;;;32.75;19.59;95761.58;1678844;85;21061;-67
2022/07/14 11:52:30;;;;;;;0.80;0.80;;;;;;;32.54;20.01;95763.33;1678853;85;21029;-67
2022/07/14 11:55:01;;;;;;;1.07;0.80;;;;;;;32.17;20.22;95766.24;1678743;85;21543;-67
2022/07/14 11:57:28;;;;;;;1.98;0.80;;;;;;;32.22;19.96;95762.53;1678737;85;21057;-67
2022/07/14 12:00:04;;;;;;;0.70;0.68;;;;;;;32.23;21.67;95761.02;1678676;85;21032;-67